createdAt,value
2023-04-26T00:00:58.121Z,989.97
2023-04-26T00:01:58.109Z,989.92
2023-04-26T00:02:58.205Z,990.00
2023-04-26T00:03:58.327Z,990.01
2023-04-26T00:04:58.413Z,990.01
2023-04-26T00:05:58.110Z,989.95
2023-04-26T00:06:58.074Z,990.03
2023-04-26T00:07:58.049Z,989.94
2023-04-26T00:08:58.066Z,990.02
2023-04-26T00:09:58.046Z,990.04
2023-04-26T00:10:58.028Z,990.05
2023-04-26T00:11:58.029Z,990.06
2023-04-26T00:12:58.030Z,990.05
2023-04-26T00:13:58.017Z,990.03
2023-04-26T00:14:57.986Z,990.04
2023-04-26T00:15:58.068Z,990.02
2023-04-26T00:16:57.964Z,990.05
2023-04-26T00:17:58.067Z,990.08
2023-04-26T00:18:58.003Z,990.09
2023-04-26T00:19:57.945Z,990.08
2023-04-26T00:20:57.967Z,990.04
2023-04-26T00:21:57.955Z,990.05
2023-04-26T00:22:57.933Z,990.06
2023-04-26T00:23:57.918Z,990.07
2023-04-26T00:24:57.936Z,990.04
2023-04-26T00:25:57.898Z,989.97
2023-04-26T00:26:57.891Z,990.05
2023-04-26T00:27:57.860Z,990.02
2023-04-26T00:28:57.902Z,990.00
2023-04-26T00:29:57.849Z,990.01
2023-04-26T00:30:57.864Z,990.08
2023-04-26T00:31:57.872Z,990.01
2023-04-26T00:32:57.884Z,989.99
2023-04-26T00:33:57.829Z,989.98
2023-04-26T00:34:57.816Z,990.03
2023-04-26T00:35:57.781Z,990.00
2023-04-26T00:36:57.771Z,990.00
2023-04-26T00:37:57.762Z,989.95
2023-04-26T00:38:57.758Z,990.03
2023-04-26T00:39:57.785Z,990.03
2023-04-26T00:40:57.751Z,990.01
2023-04-26T00:41:57.714Z,990.02
2023-04-26T00:42:57.713Z,989.92
2023-04-26T00:43:57.702Z,989.99
2023-04-26T00:44:57.872Z,990.04
2023-04-26T00:45:57.762Z,990.00
2023-04-26T00:46:57.675Z,990.07
2023-04-26T00:47:57.683Z,990.00
2023-04-26T00:48:57.650Z,990.06
2023-04-26T00:49:57.676Z,990.02
2023-04-26T00:50:57.664Z,990.03
2023-04-26T00:51:57.634Z,990.02
2023-04-26T00:52:57.636Z,989.95
2023-04-26T00:53:57.600Z,989.99
2023-04-26T00:54:57.602Z,990.00
2023-04-26T00:55:57.639Z,989.95
2023-04-26T00:56:57.661Z,990.07
2023-04-26T00:57:57.566Z,989.99
2023-04-26T00:58:57.641Z,990.10
2023-04-26T00:59:57.553Z,989.95
2023-04-26T01:00:57.586Z,990.08
2023-04-26T01:01:57.651Z,990.03
2023-04-26T01:02:57.591Z,990.07
2023-04-26T01:03:57.590Z,990.08
2023-04-26T01:04:57.495Z,990.08
2023-04-26T01:05:57.504Z,990.07
2023-04-26T01:06:57.472Z,990.04
2023-04-26T01:07:57.461Z,990.08
2023-04-26T01:08:57.461Z,990.07
2023-04-26T01:09:57.458Z,990.03
2023-04-26T01:10:57.464Z,990.09
2023-04-26T01:11:57.434Z,990.08
2023-04-26T01:12:57.436Z,990.07
2023-04-26T01:13:57.413Z,990.09
2023-04-26T01:14:57.407Z,990.12
2023-04-26T01:15:57.500Z,990.09
2023-04-26T01:16:57.475Z,990.10
2023-04-26T01:17:57.435Z,990.07
2023-04-26T01:18:57.380Z,990.01
2023-04-26T01:19:57.355Z,990.05
2023-04-26T01:20:57.349Z,990.09
2023-04-26T01:21:57.339Z,990.12
2023-04-26T01:22:57.328Z,990.07
2023-04-26T01:23:57.339Z,990.11
2023-04-26T01:24:57.306Z,990.07
2023-04-26T01:25:57.307Z,990.09
2023-04-26T01:26:57.290Z,990.10
2023-04-26T01:27:57.287Z,990.13
2023-04-26T01:28:57.331Z,990.09
2023-04-26T01:29:57.256Z,990.14
2023-04-26T01:30:57.272Z,990.13
2023-04-26T01:31:57.239Z,990.11
2023-04-26T01:32:57.272Z,990.16
2023-04-26T01:33:57.209Z,990.20
2023-04-26T01:34:57.251Z,990.16
2023-04-26T01:35:57.221Z,990.19
2023-04-26T01:36:57.193Z,990.14
2023-04-26T01:37:57.196Z,990.11
2023-04-26T01:38:57.150Z,990.15
2023-04-26T01:39:57.184Z,990.12
2023-04-26T01:40:57.182Z,990.12
2023-04-26T01:41:57.132Z,990.04
2023-04-26T01:42:57.148Z,990.11
2023-04-26T01:43:57.121Z,990.09
2023-04-26T01:44:57.114Z,990.02
2023-04-26T01:45:57.117Z,990.07
2023-04-26T01:46:57.084Z,990.09
2023-04-26T01:47:57.117Z,990.01
2023-04-26T01:48:57.075Z,990.02
2023-04-26T01:49:57.052Z,990.08
2023-04-26T01:50:57.059Z,990.05
2023-04-26T01:51:57.126Z,990.11
2023-04-26T01:52:58.060Z,990.06
2023-04-26T01:53:57.027Z,990.11
2023-04-26T01:54:57.002Z,990.05
2023-04-26T01:55:57.026Z,990.05
2023-04-26T01:56:56.988Z,990.07
2023-04-26T01:57:57.005Z,990.09
2023-04-26T01:58:56.963Z,990.12
2023-04-26T01:59:56.960Z,990.06
2023-04-26T02:00:56.996Z,990.12
2023-04-26T02:01:56.981Z,990.15
2023-04-26T02:02:56.998Z,990.12
2023-04-26T02:03:56.933Z,990.09
2023-04-26T02:04:56.925Z,990.14
2023-04-26T02:05:56.908Z,990.07
2023-04-26T02:06:56.947Z,990.11
2023-04-26T02:07:56.901Z,990.18
2023-04-26T02:08:56.885Z,990.16
2023-04-26T02:09:56.864Z,990.15
2023-04-26T02:10:56.859Z,990.18
2023-04-26T02:11:56.844Z,990.11
2023-04-26T02:12:56.849Z,990.13
2023-04-26T02:13:56.834Z,990.12
2023-04-26T02:14:56.833Z,990.13
2023-04-26T02:15:56.860Z,990.17
2023-04-26T02:16:57.783Z,990.14
2023-04-26T02:17:56.859Z,990.14
2023-04-26T02:18:56.775Z,990.17
2023-04-26T02:19:56.781Z,990.14
2023-04-26T02:20:56.797Z,990.16
2023-04-26T02:21:56.756Z,990.15
2023-04-26T02:22:56.736Z,990.14
2023-04-26T02:23:56.731Z,990.13
2023-04-26T02:24:56.720Z,990.15
2023-04-26T02:25:56.859Z,990.15
2023-04-26T02:26:56.698Z,990.17
2023-04-26T02:27:56.704Z,990.21
2023-04-26T02:28:56.676Z,990.18
2023-04-26T02:29:56.703Z,990.17
2023-04-26T02:30:56.735Z,990.16
2023-04-26T02:31:56.805Z,990.16
2023-04-26T02:32:56.700Z,990.18
2023-04-26T02:33:56.627Z,990.19
2023-04-26T02:34:56.622Z,990.17
2023-04-26T02:35:56.616Z,990.19
2023-04-26T02:36:56.599Z,990.14
2023-04-26T02:37:56.608Z,990.09
2023-04-26T02:38:56.572Z,990.15
2023-04-26T02:39:56.567Z,990.11
2023-04-26T02:40:56.659Z,990.13
2023-04-26T02:41:56.550Z,990.10
2023-04-26T02:42:56.543Z,990.12
2023-04-26T02:43:56.558Z,990.10
2023-04-26T02:44:56.519Z,990.18
2023-04-26T02:45:56.513Z,990.15
2023-04-26T02:46:56.554Z,990.18
2023-04-26T02:47:56.549Z,990.11
2023-04-26T02:48:56.496Z,990.18
2023-04-26T02:49:56.470Z,990.15
2023-04-26T02:50:56.461Z,990.14
2023-04-26T02:51:56.501Z,990.18
2023-04-26T02:52:56.471Z,990.16
2023-04-26T02:53:56.440Z,990.17
2023-04-26T02:54:56.429Z,990.15
2023-04-26T02:55:56.410Z,990.16
2023-04-26T02:56:56.392Z,990.13
2023-04-26T02:57:56.466Z,990.15
2023-04-26T02:58:56.385Z,990.13
2023-04-26T02:59:56.376Z,990.10
2023-04-26T03:00:57.437Z,990.12
2023-04-26T03:01:56.400Z,990.16
2023-04-26T03:02:56.419Z,990.23
2023-04-26T03:03:56.484Z,990.16
2023-04-26T03:04:56.344Z,990.26
2023-04-26T03:06:28.270Z,990.21
2023-04-26T03:06:56.301Z,990.22
2023-04-26T03:07:56.317Z,990.23
2023-04-26T03:08:56.299Z,990.20
2023-04-26T03:09:56.298Z,990.22
2023-04-26T03:10:56.298Z,990.25
2023-04-26T03:11:56.261Z,990.23
2023-04-26T03:12:56.301Z,990.24
2023-04-26T03:13:56.247Z,990.23
2023-04-26T03:14:56.248Z,990.21
2023-04-26T03:15:56.230Z,990.24
2023-04-26T03:16:56.248Z,990.23
2023-04-26T03:17:56.249Z,990.28
2023-04-26T03:18:56.199Z,990.22
2023-04-26T03:19:56.210Z,990.26
2023-04-26T03:20:56.201Z,990.26
2023-04-26T03:21:56.180Z,990.21
2023-04-26T03:22:56.180Z,990.24
2023-04-26T03:23:56.157Z,990.24
2023-04-26T03:24:56.136Z,990.22
2023-04-26T03:25:56.179Z,990.26
2023-04-26T03:26:56.114Z,990.26
2023-04-26T03:27:56.121Z,990.27
2023-04-26T03:28:56.112Z,990.25
2023-04-26T03:29:56.099Z,990.21
2023-04-26T03:30:56.098Z,990.30
2023-04-26T03:31:56.121Z,990.25
2023-04-26T03:32:56.085Z,990.30
2023-04-26T03:33:56.073Z,990.25
2023-04-26T03:34:56.107Z,990.28
2023-04-26T03:35:56.066Z,990.28
2023-04-26T03:36:56.190Z,990.22
2023-04-26T03:37:58.492Z,990.19
2023-04-26T03:38:57.014Z,990.22
2023-04-26T03:39:55.996Z,990.26
2023-04-26T03:40:55.987Z,990.22
2023-04-26T03:41:56.028Z,990.22
2023-04-26T03:42:55.987Z,990.25
2023-04-26T03:43:56.002Z,990.18
2023-04-26T03:44:55.952Z,990.19
2023-04-26T03:45:55.948Z,990.21
2023-04-26T03:46:55.953Z,990.22
2023-04-26T03:47:55.988Z,990.26
2023-04-26T03:48:55.914Z,990.24
2023-04-26T03:49:55.916Z,990.27
2023-04-26T03:50:55.946Z,990.23
2023-04-26T03:51:55.889Z,990.28
2023-04-26T03:52:55.943Z,990.26
2023-04-26T03:53:55.866Z,990.28
2023-04-26T03:54:55.854Z,990.29
2023-04-26T03:55:55.885Z,990.31
2023-04-26T03:56:55.855Z,990.26
2023-04-26T03:57:55.819Z,990.38
2023-04-26T03:58:55.816Z,990.27
2023-04-26T03:59:55.807Z,990.30
2023-04-26T04:00:55.838Z,990.35
2023-04-26T04:01:55.876Z,990.30
2023-04-26T04:02:55.866Z,990.29
2023-04-26T04:03:56.038Z,990.35
2023-04-26T04:04:55.941Z,990.34
2023-04-26T04:05:55.735Z,990.33
2023-04-26T04:06:55.736Z,990.31
2023-04-26T04:07:55.758Z,990.31
2023-04-26T04:08:55.777Z,990.27
2023-04-26T04:09:55.728Z,990.25
2023-04-26T04:10:55.729Z,990.22
2023-04-26T04:11:55.681Z,990.25
2023-04-26T04:12:55.697Z,990.20
2023-04-26T04:13:55.674Z,990.25
2023-04-26T04:14:55.676Z,990.29
2023-04-26T04:15:55.673Z,990.31
2023-04-26T04:16:55.670Z,990.28
2023-04-26T04:17:55.702Z,990.26
2023-04-26T04:18:55.629Z,990.23
2023-04-26T04:19:55.621Z,990.23
2023-04-26T04:20:55.641Z,990.27
2023-04-26T04:21:55.596Z,990.27
2023-04-26T04:22:55.596Z,990.26
2023-04-26T04:23:55.588Z,990.23
2023-04-26T04:24:55.587Z,990.25
2023-04-26T04:25:55.563Z,990.22
2023-04-26T04:26:55.552Z,990.20
2023-04-26T04:27:55.547Z,990.22
2023-04-26T04:28:55.545Z,990.28
2023-04-26T04:29:55.535Z,990.19
2023-04-26T04:30:55.577Z,990.25
2023-04-26T04:31:55.516Z,990.21
2023-04-26T04:32:55.548Z,990.31
2023-04-26T04:33:55.503Z,990.28
2023-04-26T04:34:56.460Z,990.29
2023-04-26T04:35:55.479Z,990.32
2023-04-26T04:36:55.529Z,990.28
2023-04-26T04:37:55.640Z,990.39
2023-04-26T04:38:55.465Z,990.42
2023-04-26T04:39:55.421Z,990.27
2023-04-26T04:40:55.500Z,990.37
2023-04-26T04:41:55.439Z,990.40
2023-04-26T04:42:55.608Z,990.39
2023-04-26T04:43:55.430Z,990.44
2023-04-26T04:44:55.429Z,990.40
2023-04-26T04:45:55.422Z,990.42
2023-04-26T04:46:55.440Z,990.35
2023-04-26T04:47:55.554Z,990.36
2023-04-26T04:48:55.409Z,990.44
2023-04-26T04:49:55.460Z,990.42
2023-04-26T04:50:55.316Z,990.41
2023-04-26T04:51:55.314Z,990.41
2023-04-26T04:52:55.316Z,990.38
2023-04-26T04:53:55.280Z,990.40
2023-04-26T04:54:55.291Z,990.41
2023-04-26T04:55:55.257Z,990.38
2023-04-26T04:56:55.244Z,990.41
2023-04-26T04:57:55.274Z,990.41
2023-04-26T04:58:55.236Z,990.38
2023-04-26T04:59:55.245Z,990.44
2023-04-26T05:00:55.214Z,990.44
2023-04-26T05:01:55.248Z,990.37
2023-04-26T05:02:55.320Z,990.40
2023-04-26T05:03:55.641Z,990.45
2023-04-26T05:04:55.202Z,990.45
2023-04-26T05:05:55.190Z,990.50
2023-04-26T05:06:55.160Z,990.48
2023-04-26T05:07:55.164Z,990.46
2023-04-26T05:08:55.158Z,990.51
2023-04-26T05:09:55.157Z,990.44
2023-04-26T05:10:55.141Z,990.44
2023-04-26T05:11:55.124Z,990.48
2023-04-26T05:12:55.104Z,990.51
2023-04-26T05:13:55.203Z,990.53
2023-04-26T05:14:55.084Z,990.50
2023-04-26T05:15:55.142Z,990.42
2023-04-26T05:16:55.145Z,990.47
2023-04-26T05:17:55.109Z,990.49
2023-04-26T05:18:55.062Z,990.53
2023-04-26T05:19:55.030Z,990.50
2023-04-26T05:20:55.038Z,990.54
2023-04-26T05:21:55.016Z,990.53
2023-04-26T05:22:54.983Z,990.49
2023-04-26T05:23:55.226Z,990.48
2023-04-26T05:24:55.013Z,990.50
2023-04-26T05:25:55.088Z,990.56
2023-04-26T05:26:54.966Z,990.63
2023-04-26T05:27:54.942Z,990.55
2023-04-26T05:28:54.970Z,990.60
2023-04-26T05:29:54.928Z,990.48
2023-04-26T05:30:54.938Z,990.50
2023-04-26T05:31:54.951Z,990.44
2023-04-26T05:32:54.961Z,990.48
2023-04-26T05:33:55.004Z,990.46
2023-04-26T05:34:54.908Z,990.50
2023-04-26T05:35:54.878Z,990.53
2023-04-26T05:36:54.863Z,990.55
2023-04-26T05:37:54.886Z,990.56
2023-04-26T05:38:54.870Z,990.64
2023-04-26T05:39:54.861Z,990.59
2023-04-26T05:40:54.855Z,990.57
2023-04-26T05:41:54.823Z,990.62
2023-04-26T05:42:54.822Z,990.57
2023-04-26T05:43:55.047Z,990.64
2023-04-26T05:44:54.805Z,990.61
2023-04-26T05:45:54.853Z,990.65
2023-04-26T05:46:54.811Z,990.61
2023-04-26T05:47:54.777Z,990.58
2023-04-26T05:48:54.743Z,990.60
2023-04-26T05:49:54.756Z,990.63
2023-04-26T05:50:54.744Z,990.66
2023-04-26T05:51:54.773Z,990.68
2023-04-26T05:52:54.701Z,990.59
2023-04-26T05:53:54.935Z,990.60
2023-04-26T05:54:54.689Z,990.61
2023-04-26T05:55:54.693Z,990.63
2023-04-26T05:56:55.193Z,990.59
2023-04-26T05:57:54.699Z,990.60
2023-04-26T05:58:54.667Z,990.57
2023-04-26T05:59:54.635Z,990.63
2023-04-26T06:00:54.654Z,990.65
2023-04-26T06:01:54.632Z,990.64
2023-04-26T06:02:54.806Z,990.63
2023-04-26T06:03:58.065Z,990.63
2023-04-26T06:04:55.864Z,990.63
2023-04-26T06:05:54.688Z,990.60
2023-04-26T06:06:54.614Z,990.64
2023-04-26T06:07:54.561Z,990.66
2023-04-26T06:08:54.575Z,990.60
2023-04-26T06:09:54.548Z,990.65
2023-04-26T06:10:54.573Z,990.65
2023-04-26T06:11:54.544Z,990.56
2023-04-26T06:12:54.500Z,990.56
2023-04-26T06:13:54.762Z,990.58
2023-04-26T06:14:54.504Z,990.59
2023-04-26T06:15:54.494Z,990.64
2023-04-26T06:16:54.558Z,990.62
2023-04-26T06:17:54.540Z,990.58
2023-04-26T06:18:54.464Z,990.58
2023-04-26T06:19:54.464Z,990.60
2023-04-26T06:20:54.442Z,990.65
2023-04-26T06:21:54.429Z,990.61
2023-04-26T06:22:54.461Z,990.58
2023-04-26T06:23:54.748Z,990.59
2023-04-26T06:24:54.446Z,990.63
2023-04-26T06:25:54.414Z,990.58
2023-04-26T06:26:54.374Z,990.55
2023-04-26T06:27:54.387Z,990.53
2023-04-26T06:28:54.366Z,990.52
2023-04-26T06:29:54.352Z,990.55
2023-04-26T06:30:54.400Z,990.60
2023-04-26T06:31:54.333Z,990.65
2023-04-26T06:32:54.374Z,990.55
2023-04-26T06:33:54.497Z,990.61
2023-04-26T06:34:54.313Z,990.61
2023-04-26T06:35:54.315Z,990.62
2023-04-26T06:36:54.294Z,990.69
2023-04-26T06:37:54.301Z,990.67
2023-04-26T06:38:54.272Z,990.65
2023-04-26T06:39:54.271Z,990.66
2023-04-26T06:40:54.271Z,990.60
2023-04-26T06:41:54.244Z,990.69
2023-04-26T06:42:54.269Z,990.64
2023-04-26T06:43:54.347Z,990.75
2023-04-26T06:44:54.274Z,990.70
2023-04-26T06:45:54.243Z,990.72
2023-04-26T06:46:54.218Z,990.67
2023-04-26T06:47:54.260Z,990.77
2023-04-26T06:48:54.179Z,990.73
2023-04-26T06:49:54.168Z,990.70
2023-04-26T06:50:54.181Z,990.77
2023-04-26T06:51:54.144Z,990.69
2023-04-26T06:52:54.393Z,990.75
2023-04-26T06:53:54.313Z,990.77
2023-04-26T06:54:57.306Z,990.75
2023-04-26T06:55:55.117Z,990.74
2023-04-26T06:56:54.095Z,990.73
2023-04-26T06:57:54.102Z,990.70
2023-04-26T06:58:54.098Z,990.71
2023-04-26T06:59:54.070Z,990.66
2023-04-26T07:00:54.053Z,990.65
2023-04-26T07:01:54.075Z,990.66
2023-04-26T07:02:54.133Z,990.58
2023-04-26T07:03:54.236Z,990.61
2023-04-26T07:04:54.151Z,990.57
2023-04-26T07:05:54.012Z,990.60
2023-04-26T07:06:54.013Z,990.56
2023-04-26T07:07:54.015Z,990.48
2023-04-26T07:08:54.455Z,990.53
2023-04-26T07:09:53.974Z,990.52
2023-04-26T07:10:53.999Z,990.47
2023-04-26T07:11:53.962Z,990.36
2023-04-26T07:12:53.941Z,990.63
2023-04-26T07:13:54.257Z,990.47
2023-04-26T07:14:53.936Z,990.55
2023-04-26T07:15:53.914Z,990.66
2023-04-26T07:16:53.908Z,990.62
2023-04-26T07:17:53.957Z,990.56
2023-04-26T07:18:53.884Z,990.58
2023-04-26T07:19:55.540Z,990.56
2023-04-26T07:20:53.868Z,990.67
2023-04-26T07:21:53.860Z,990.54
2023-04-26T07:22:53.872Z,990.63
2023-04-26T07:23:54.008Z,990.57
2023-04-26T07:24:54.049Z,990.42
2023-04-26T07:25:55.252Z,990.48
2023-04-26T07:26:53.829Z,990.55
2023-04-26T07:27:53.806Z,990.75
2023-04-26T07:28:53.802Z,990.58
2023-04-26T07:29:53.778Z,990.69
2023-04-26T07:30:53.773Z,990.73
2023-04-26T07:31:53.785Z,990.49
2023-04-26T07:32:53.779Z,990.71
2023-04-26T07:33:54.088Z,990.73
2023-04-26T07:34:53.754Z,990.53
2023-04-26T07:35:53.719Z,990.59
2023-04-26T07:36:53.732Z,990.53
2023-04-26T07:37:53.709Z,990.53
2023-04-26T07:38:53.696Z,990.56
2023-04-26T07:39:53.707Z,990.62
2023-04-26T07:40:53.679Z,990.71
2023-04-26T07:41:53.666Z,990.72
2023-04-26T07:42:53.662Z,990.68
2023-04-26T07:43:54.867Z,990.55
2023-04-26T07:44:53.639Z,990.61
2023-04-26T07:45:53.671Z,990.61
2023-04-26T07:46:53.615Z,990.57
2023-04-26T07:47:53.676Z,990.63
2023-04-26T07:48:53.601Z,990.63
2023-04-26T07:49:53.585Z,990.57
2023-04-26T07:50:53.587Z,990.61
2023-04-26T07:51:53.590Z,990.67
2023-04-26T07:52:53.570Z,990.59
2023-04-26T07:53:53.871Z,990.56
2023-04-26T07:54:53.553Z,990.61
2023-04-26T07:55:53.532Z,990.58
2023-04-26T07:56:53.515Z,990.62
2023-04-26T07:57:53.544Z,990.57
2023-04-26T07:58:53.528Z,990.55
2023-04-26T07:59:53.507Z,990.52
2023-04-26T08:00:53.510Z,990.59
2023-04-26T08:01:53.506Z,990.64
2023-04-26T08:02:53.657Z,990.60
2023-04-26T08:03:53.876Z,990.58
2023-04-26T08:04:53.664Z,990.60
2023-04-26T08:05:53.487Z,990.62
2023-04-26T08:06:53.507Z,990.68
2023-04-26T08:07:53.443Z,990.62
2023-04-26T08:08:53.413Z,990.59
2023-04-26T08:09:53.419Z,990.64
2023-04-26T08:10:53.410Z,990.62
2023-04-26T08:11:53.463Z,990.67
2023-04-26T08:12:53.382Z,990.61
2023-04-26T08:13:53.527Z,990.58
2023-04-26T08:14:53.363Z,990.67
2023-04-26T08:15:53.327Z,990.58
2023-04-26T08:16:53.333Z,990.59
2023-04-26T08:17:53.430Z,990.60
2023-04-26T08:18:53.298Z,990.61
2023-04-26T08:19:53.319Z,990.65
2023-04-26T08:20:53.281Z,990.65
2023-04-26T08:21:53.285Z,990.60
2023-04-26T08:22:53.283Z,990.58
2023-04-26T08:23:53.420Z,990.54
2023-04-26T08:24:53.425Z,990.62
2023-04-26T08:25:53.229Z,990.68
2023-04-26T08:26:53.233Z,990.54
2023-04-26T08:27:53.206Z,990.53
2023-04-26T08:28:53.278Z,990.55
2023-04-26T08:29:53.185Z,990.52
2023-04-26T08:30:53.212Z,990.53
2023-04-26T08:31:53.184Z,990.52
2023-04-26T08:32:53.166Z,990.48
2023-04-26T08:33:53.350Z,990.60
2023-04-26T08:34:53.160Z,990.56
2023-04-26T08:35:53.169Z,990.42
2023-04-26T08:36:53.141Z,990.43
2023-04-26T08:37:53.113Z,990.48
2023-04-26T08:38:53.106Z,990.43
2023-04-26T08:39:53.089Z,990.47
2023-04-26T08:40:53.075Z,990.52
2023-04-26T08:41:53.092Z,990.53
2023-04-26T08:42:53.065Z,990.46
2023-04-26T08:43:53.238Z,990.47
2023-04-26T08:44:53.046Z,990.44
2023-04-26T08:45:53.160Z,990.55
2023-04-26T08:46:53.050Z,990.49
2023-04-26T08:47:53.070Z,990.57
2023-04-26T08:48:53.016Z,990.60
2023-04-26T08:49:53.011Z,990.57
2023-04-26T08:50:53.004Z,990.55
2023-04-26T08:51:52.991Z,990.63
2023-04-26T08:52:53.005Z,990.59
2023-04-26T08:53:53.282Z,990.57
2023-04-26T08:54:52.948Z,990.65
2023-04-26T08:55:52.944Z,990.64
2023-04-26T08:56:52.978Z,990.68
2023-04-26T08:57:52.958Z,990.63
2023-04-26T08:58:52.916Z,990.61
2023-04-26T08:59:52.917Z,990.70
2023-04-26T09:00:52.897Z,990.59
2023-04-26T09:01:52.964Z,990.61
2023-04-26T09:02:53.358Z,990.64
2023-04-26T09:03:53.138Z,990.67
2023-04-26T09:04:53.141Z,990.67
2023-04-26T09:05:52.849Z,990.65
2023-04-26T09:07:24.803Z,990.53
2023-04-26T09:07:52.850Z,990.50
2023-04-26T09:08:52.850Z,990.54
2023-04-26T09:09:52.813Z,990.48
2023-04-26T09:10:52.816Z,990.51
2023-04-26T09:11:52.848Z,990.40
2023-04-26T09:12:52.802Z,990.49
2023-04-26T09:13:53.019Z,990.45
2023-04-26T09:14:52.757Z,990.52
2023-04-26T09:15:52.767Z,990.45
2023-04-26T09:16:52.751Z,990.51
2023-04-26T09:17:52.845Z,990.50
2023-04-26T09:18:53.213Z,990.50
2023-04-26T09:19:52.732Z,990.45
2023-04-26T09:20:52.727Z,990.43
2023-04-26T09:21:52.697Z,990.45
2023-04-26T09:22:52.684Z,990.47
2023-04-26T09:23:52.675Z,990.42
2023-04-26T09:24:52.710Z,990.42
2023-04-26T09:25:52.645Z,990.39
2023-04-26T09:26:52.656Z,990.45
2023-04-26T09:27:52.655Z,990.43
2023-04-26T09:28:52.865Z,990.43
2023-04-26T09:29:52.601Z,990.37
2023-04-26T09:30:52.625Z,990.47
2023-04-26T09:31:52.746Z,990.41
2023-04-26T09:32:52.633Z,990.40
2023-04-26T09:33:52.581Z,990.38
2023-04-26T09:34:52.565Z,990.36
2023-04-26T09:35:52.571Z,990.34
2023-04-26T09:36:52.538Z,990.42
2023-04-26T09:37:59.393Z,990.38
2023-04-26T09:38:54.532Z,990.39
2023-04-26T09:39:52.517Z,990.36
2023-04-26T09:40:52.523Z,990.42
2023-04-26T09:41:52.522Z,990.42
2023-04-26T09:42:52.524Z,990.41
2023-04-26T09:43:52.488Z,990.37
2023-04-26T09:44:52.523Z,990.36
2023-04-26T09:45:52.455Z,990.40
2023-04-26T09:46:52.500Z,990.33
2023-04-26T09:47:52.522Z,990.34
2023-04-26T09:48:52.666Z,990.38
2023-04-26T09:49:52.420Z,990.38
2023-04-26T09:50:52.615Z,990.41
2023-04-26T09:51:52.395Z,990.39
2023-04-26T09:52:52.409Z,990.44
2023-04-26T09:53:53.178Z,990.41
2023-04-26T09:54:52.385Z,990.38
2023-04-26T09:55:52.356Z,990.42
2023-04-26T09:56:52.363Z,990.45
2023-04-26T09:57:52.334Z,990.43
2023-04-26T09:58:52.683Z,990.46
2023-04-26T09:59:54.381Z,990.46
2023-04-26T10:00:53.578Z,990.46
2023-04-26T10:01:52.297Z,990.51
2023-04-26T10:02:52.406Z,990.52
2023-04-26T10:03:52.464Z,990.53
2023-04-26T10:04:52.398Z,990.47
2023-04-26T10:05:52.267Z,990.48
2023-04-26T10:06:52.251Z,990.48
2023-04-26T10:07:52.233Z,990.43
2023-04-26T10:08:52.590Z,990.48
2023-04-26T10:09:52.231Z,990.45
2023-04-26T10:10:52.225Z,990.42
2023-04-26T10:11:52.210Z,990.42
2023-04-26T10:12:52.200Z,990.44
2023-04-26T10:13:52.221Z,990.39
2023-04-26T10:14:52.205Z,990.38
2023-04-26T10:15:52.164Z,990.40
2023-04-26T10:16:52.225Z,990.34
2023-04-26T10:17:52.311Z,990.41
2023-04-26T10:18:53.326Z,990.40
2023-04-26T10:19:52.130Z,990.44
2023-04-26T10:20:52.124Z,990.38
2023-04-26T10:21:52.100Z,990.42
2023-04-26T10:22:52.098Z,990.41
2023-04-26T10:23:52.096Z,990.38
2023-04-26T10:24:52.095Z,990.35
2023-04-26T10:25:52.066Z,990.36
2023-04-26T10:26:52.135Z,990.38
2023-04-26T10:27:52.044Z,990.36
2023-04-26T10:28:56.158Z,990.36
2023-04-26T10:29:54.058Z,990.34
2023-04-26T10:30:52.046Z,990.38
2023-04-26T10:31:52.079Z,990.37
2023-04-26T10:32:52.009Z,990.37
2023-04-26T10:33:51.983Z,990.39
2023-04-26T10:34:51.970Z,990.37
2023-04-26T10:35:52.015Z,990.38
2023-04-26T10:36:51.973Z,990.38
2023-04-26T10:37:51.939Z,990.40
2023-04-26T10:38:52.116Z,990.40
2023-04-26T10:39:51.920Z,990.42
2023-04-26T10:40:53.377Z,990.39
2023-04-26T10:41:51.896Z,990.43
2023-04-26T10:42:51.900Z,990.41
2023-04-26T10:43:52.064Z,990.43
2023-04-26T10:44:51.904Z,990.41
2023-04-26T10:45:52.005Z,990.41
2023-04-26T10:46:51.864Z,990.42
2023-04-26T10:47:51.889Z,990.47
2023-04-26T10:48:51.949Z,990.45
2023-04-26T10:49:52.821Z,990.39
2023-04-26T10:50:51.812Z,990.40
2023-04-26T10:51:51.806Z,990.43
2023-04-26T10:52:52.865Z,990.37
2023-04-26T10:53:52.124Z,990.36
2023-04-26T10:54:51.773Z,990.36
2023-04-26T10:55:51.775Z,990.36
2023-04-26T10:56:51.772Z,990.33
2023-04-26T10:57:51.765Z,990.28
2023-04-26T10:58:51.745Z,990.31
2023-04-26T10:59:54.637Z,990.39
2023-04-26T11:00:52.707Z,990.34
2023-04-26T11:01:51.747Z,990.34
2023-04-26T11:02:52.898Z,990.26
2023-04-26T11:03:53.040Z,990.30
2023-04-26T11:04:51.778Z,990.30
2023-04-26T11:05:51.684Z,990.32
2023-04-26T11:06:51.678Z,990.34
2023-04-26T11:07:51.664Z,990.34
2023-04-26T11:08:51.967Z,990.28
2023-04-26T11:09:51.635Z,990.32
2023-04-26T11:10:51.640Z,990.28
2023-04-26T11:11:51.624Z,990.24
2023-04-26T11:12:51.605Z,990.27
2023-04-26T11:13:51.611Z,990.29
2023-04-26T11:14:51.610Z,990.25
2023-04-26T11:15:52.671Z,990.24
2023-04-26T11:16:52.569Z,990.25
2023-04-26T11:17:51.828Z,990.21
2023-04-26T11:18:51.828Z,990.20
2023-04-26T11:19:51.547Z,990.23
2023-04-26T11:20:52.530Z,990.27
2023-04-26T11:21:51.524Z,990.22
2023-04-26T11:22:51.504Z,990.23
2023-04-26T11:23:51.524Z,990.27
2023-04-26T11:24:51.481Z,990.24
2023-04-26T11:25:51.519Z,990.16
2023-04-26T11:26:51.496Z,990.16
2023-04-26T11:27:51.463Z,990.26
2023-04-26T11:28:51.677Z,990.28
2023-04-26T11:29:51.439Z,990.26
2023-04-26T11:30:51.439Z,990.26
2023-04-26T11:31:51.564Z,990.26
2023-04-26T11:32:51.676Z,990.25
2023-04-26T11:33:51.399Z,990.23
2023-04-26T11:34:51.399Z,990.20
2023-04-26T11:35:51.394Z,990.26
2023-04-26T11:36:51.505Z,990.29
2023-04-26T11:37:51.389Z,990.23
2023-04-26T11:38:51.554Z,990.22
2023-04-26T11:39:51.360Z,990.17
2023-04-26T11:40:51.341Z,990.25
2023-04-26T11:41:51.369Z,990.25
2023-04-26T11:42:51.317Z,990.19
2023-04-26T11:43:51.339Z,990.23
2023-04-26T11:44:51.292Z,990.16
2023-04-26T11:45:51.288Z,990.14
2023-04-26T11:46:51.302Z,990.10
2023-04-26T11:47:51.280Z,990.19
2023-04-26T11:48:51.618Z,990.19
2023-04-26T11:49:51.288Z,990.11
2023-04-26T11:50:51.250Z,990.21
2023-04-26T11:51:51.247Z,990.19
2023-04-26T11:52:51.213Z,990.25
2023-04-26T11:53:51.228Z,990.09
2023-04-26T11:54:51.209Z,990.21
2023-04-26T11:55:51.195Z,990.21
2023-04-26T11:56:51.201Z,990.22
2023-04-26T11:57:51.176Z,990.21
2023-04-26T11:58:51.482Z,990.17
2023-04-26T11:59:51.150Z,990.21
2023-04-26T12:00:51.139Z,990.25
2023-04-26T12:01:51.209Z,990.20
2023-04-26T12:02:51.282Z,990.23
2023-04-26T12:03:51.213Z,990.25
2023-04-26T12:04:51.380Z,990.30
2023-04-26T12:05:51.101Z,990.24
2023-04-26T12:06:51.103Z,990.23
2023-04-26T12:07:51.079Z,990.23
2023-04-26T12:08:51.347Z,990.20
2023-04-26T12:09:51.059Z,990.27
2023-04-26T12:10:51.050Z,990.18
2023-04-26T12:11:51.060Z,990.24
2023-04-26T12:12:51.034Z,990.18
2023-04-26T12:13:51.017Z,990.20
2023-04-26T12:14:50.991Z,990.25
2023-04-26T12:15:52.000Z,990.21
2023-04-26T12:16:51.073Z,990.20
2023-04-26T12:17:51.013Z,990.19
2023-04-26T12:18:50.960Z,990.21
2023-04-26T12:19:50.979Z,990.20
2023-04-26T12:20:50.951Z,990.13
2023-04-26T12:21:50.956Z,990.17
2023-04-26T12:22:50.926Z,990.15
2023-04-26T12:23:50.993Z,990.22
2023-04-26T12:24:50.914Z,990.17
2023-04-26T12:25:50.914Z,990.12
2023-04-26T12:26:50.899Z,990.14
2023-04-26T12:27:50.888Z,990.17
2023-04-26T12:28:50.871Z,990.15